createdAt,value
2018-05-24T00:01:37.713Z,42.11
2018-05-24T00:04:03.840Z,42.24
2018-05-24T00:06:29.958Z,42.24
2018-05-24T00:08:56.189Z,42.22
2018-05-24T00:11:22.349Z,42.39
2018-05-24T00:13:48.534Z,42.32
2018-05-24T00:16:14.650Z,42.27
2018-05-24T00:18:40.736Z,42.22
2018-05-24T00:21:07.202Z,42.17
2018-05-24T00:23:33.305Z,42.17
2018-05-24T00:25:59.533Z,42.13
2018-05-24T00:28:25.621Z,42.12
2018-05-24T00:30:51.719Z,42.12
2018-05-24T00:33:17.940Z,42.16
2018-05-24T00:35:44.053Z,42.33
2018-05-24T00:38:10.204Z,42.33
2018-05-24T00:40:36.622Z,42.29
2018-05-24T00:43:02.713Z,42.42
2018-05-24T00:45:29.176Z,42.59
2018-05-24T00:47:55.469Z,42.70
2018-05-24T00:50:21.571Z,42.61
2018-05-24T00:52:47.672Z,42.64
2018-05-24T00:55:26.422Z,42.65
2018-05-24T00:57:52.538Z,42.71
2018-05-24T01:00:18.938Z,42.68
2018-05-24T01:02:45.165Z,42.73
2018-05-24T01:05:11.259Z,42.83
2018-05-24T01:07:37.365Z,42.89
2018-05-24T01:10:03.503Z,42.90
2018-05-24T01:12:29.603Z,42.90
2018-05-24T01:14:55.729Z,42.99
2018-05-24T01:17:22.119Z,43.13
2018-05-24T01:19:48.241Z,43.12
2018-05-24T01:22:14.676Z,43.16
2018-05-24T01:24:40.777Z,43.18
2018-05-24T01:27:06.902Z,43.15
2018-05-24T01:29:32.993Z,43.37
2018-05-24T01:31:59.109Z,43.36
2018-05-24T01:34:25.280Z,43.68
2018-05-24T01:37:03.605Z,43.59
2018-05-24T01:39:30.053Z,43.46
2018-05-24T01:41:56.194Z,43.39
2018-05-24T01:44:22.289Z,43.30
2018-05-24T01:46:48.417Z,43.23
2018-05-24T01:49:14.625Z,43.19
2018-05-24T01:51:41.229Z,43.18
2018-05-24T01:54:07.329Z,43.14
2018-05-24T01:56:33.429Z,43.19
2018-05-24T01:58:59.559Z,43.22
2018-05-24T02:01:26.081Z,43.21
2018-05-24T02:03:52.171Z,43.19
2018-05-24T02:06:18.265Z,43.16
2018-05-24T02:08:44.439Z,43.36
2018-05-24T02:11:10.544Z,43.42
2018-05-24T02:13:36.739Z,43.31
2018-05-24T02:16:03.267Z,43.26
2018-05-24T02:18:29.385Z,43.15
2018-05-24T02:20:55.496Z,43.18
2018-05-24T02:23:21.628Z,43.15
2018-05-24T02:25:47.747Z,43.12
2018-05-24T02:28:13.986Z,43.05
2018-05-24T02:30:40.335Z,43.01
2018-05-24T02:33:06.454Z,43.01
2018-05-24T02:35:33.301Z,42.92
2018-05-24T02:37:59.414Z,42.93
2018-05-24T02:40:25.500Z,42.78
2018-05-24T02:42:51.632Z,42.99
2018-05-24T02:45:18.141Z,43.01
2018-05-24T02:47:44.249Z,43.26
2018-05-24T02:50:10.430Z,43.36
2018-05-24T02:52:36.903Z,43.44
2018-05-24T02:55:03.049Z,43.39
2018-05-24T02:57:29.201Z,43.35
2018-05-24T02:59:55.580Z,43.42
2018-05-24T03:02:21.694Z,43.52
2018-05-24T03:04:47.845Z,43.42
2018-05-24T03:07:13.940Z,43.42
2018-05-24T03:09:40.049Z,43.29
2018-05-24T03:12:06.621Z,43.23
2018-05-24T03:14:40.117Z,43.20
2018-05-24T03:17:06.247Z,43.10
2018-05-24T03:19:32.335Z,43.08
2018-05-24T03:21:58.515Z,43.05
2018-05-24T03:24:24.929Z,43.19
2018-05-24T03:26:51.029Z,43.13
2018-05-24T03:29:17.158Z,43.05
2018-05-24T03:31:43.257Z,43.10
2018-05-24T03:34:09.501Z,42.99
2018-05-24T03:36:35.603Z,42.79
2018-05-24T03:39:01.720Z,42.74
2018-05-24T03:41:27.905Z,42.80
2018-05-24T03:43:54.044Z,42.85
2018-05-24T03:46:23.111Z,42.69
2018-05-24T03:48:49.269Z,42.64
2018-05-24T03:51:15.426Z,42.64
2018-05-24T03:53:41.519Z,42.55
2018-05-24T03:56:08.344Z,42.46
2018-05-24T03:58:34.789Z,42.44
2018-05-24T04:01:13.979Z,42.61
2018-05-24T04:03:48.595Z,42.46
2018-05-24T04:06:14.867Z,42.42
2018-05-24T04:08:40.979Z,42.18
2018-05-24T04:11:07.087Z,42.17
2018-05-24T04:13:33.303Z,42.08
2018-05-24T04:15:59.493Z,42.31
2018-05-24T04:18:25.628Z,42.04
2018-05-24T04:20:52.040Z,42.10
2018-05-24T04:23:18.187Z,42.13
2018-05-24T04:25:44.313Z,42.06
2018-05-24T04:28:10.423Z,42.03
2018-05-24T04:30:36.625Z,42.13
2018-05-24T04:33:02.870Z,42.03
2018-05-24T04:35:28.910Z,42.00
2018-05-24T04:37:55.324Z,42.05
2018-05-24T04:40:21.491Z,42.00
2018-05-24T04:42:47.989Z,42.01
2018-05-24T04:45:14.105Z,42.08
2018-05-24T04:47:40.445Z,42.04
2018-05-24T04:50:06.682Z,41.98
2018-05-24T04:52:32.778Z,41.93
2018-05-24T04:54:58.890Z,41.93
2018-05-24T04:57:25.034Z,41.90
2018-05-24T04:59:51.190Z,41.89
2018-05-24T05:02:17.336Z,41.82
2018-05-24T05:04:43.443Z,41.81
2018-05-24T05:07:09.565Z,41.80
2018-05-24T05:09:35.710Z,41.89
2018-05-24T05:12:01.832Z,41.92
2018-05-24T05:14:27.977Z,42.02
2018-05-24T05:16:54.226Z,42.43
2018-05-24T05:19:20.450Z,42.58
2018-05-24T05:21:46.603Z,42.53
2018-05-24T05:24:13.543Z,42.48
2018-05-24T05:26:39.771Z,42.39
2018-05-24T05:29:05.881Z,42.34
2018-05-24T05:31:32.036Z,42.38
2018-05-24T05:33:58.179Z,42.32
2018-05-24T05:36:24.276Z,42.23
2018-05-24T05:38:50.513Z,42.13
2018-05-24T05:41:16.614Z,42.08
2018-05-24T05:43:43.104Z,42.19
2018-05-24T05:46:09.210Z,42.48
2018-05-24T05:48:35.312Z,42.69
2018-05-24T05:51:01.544Z,42.75
2018-05-24T05:53:27.785Z,42.74
2018-05-24T05:55:53.887Z,42.69
2018-05-24T05:58:20.130Z,42.67
2018-05-24T06:00:46.222Z,42.64
2018-05-24T06:03:12.317Z,42.63
2018-05-24T06:05:38.450Z,42.48
2018-05-24T06:08:04.614Z,42.56
2018-05-24T06:10:30.771Z,42.64
2018-05-24T06:12:56.880Z,42.42
2018-05-24T06:15:23.020Z,42.35
2018-05-24T06:17:49.456Z,42.33
2018-05-24T06:20:15.556Z,42.30
2018-05-24T06:22:41.680Z,42.25
2018-05-24T06:25:07.873Z,42.21
2018-05-24T06:27:34.089Z,42.17
2018-05-24T06:30:00.190Z,42.12
2018-05-24T06:32:26.273Z,42.03
2018-05-24T06:34:52.415Z,42.01
2018-05-24T06:37:18.678Z,41.96
2018-05-24T06:39:44.699Z,41.91
2018-05-24T06:42:11.117Z,41.89
2018-05-24T06:44:37.237Z,41.88
2018-05-24T06:47:03.364Z,41.83
2018-05-24T06:49:29.900Z,41.84
2018-05-24T06:51:55.989Z,41.83
2018-05-24T06:54:22.316Z,41.79
2018-05-24T06:56:48.574Z,41.74
2018-05-24T06:59:14.726Z,41.73
2018-05-24T07:01:40.825Z,41.70
2018-05-24T07:04:07.273Z,41.68
2018-05-24T07:06:33.410Z,41.66
2018-05-24T07:08:59.510Z,41.65
2018-05-24T07:11:25.975Z,41.64
2018-05-24T07:13:52.080Z,41.62
2018-05-24T07:16:18.516Z,41.58
2018-05-24T07:18:44.884Z,41.57
2018-05-24T07:21:11.002Z,41.57
2018-05-24T07:23:37.091Z,41.56
2018-05-24T07:26:03.665Z,41.63
2018-05-24T07:28:29.759Z,41.74
2018-05-24T07:30:55.849Z,41.68
2018-05-24T07:33:29.281Z,41.63
2018-05-24T07:35:55.714Z,41.59
2018-05-24T07:38:21.817Z,41.57
2018-05-24T07:40:47.958Z,41.53
2018-05-24T07:43:14.468Z,41.51
2018-05-24T07:45:40.634Z,41.48
2018-05-24T07:48:06.689Z,41.46
2018-05-24T07:50:33.080Z,41.46
2018-05-24T07:52:59.513Z,41.47
2018-05-24T07:55:25.638Z,41.45
2018-05-24T07:57:51.768Z,41.43
2018-05-24T08:00:18.197Z,41.43
2018-05-24T08:02:44.434Z,41.38
2018-05-24T08:07:47.658Z,41.35
2018-05-24T08:10:13.762Z,41.33
2018-05-24T08:12:39.867Z,41.30
2018-05-24T08:15:06.464Z,41.28
2018-05-24T08:17:32.594Z,41.26
2018-05-24T08:19:58.753Z,41.27
2018-05-24T08:22:24.944Z,41.25
2018-05-24T08:24:51.032Z,41.24
2018-05-24T08:27:17.151Z,41.19
2018-05-24T08:29:43.684Z,41.20
2018-05-24T08:32:09.791Z,41.18
2018-05-24T08:34:36.248Z,41.16
2018-05-24T08:37:02.444Z,41.14
2018-05-24T08:39:28.910Z,41.12
2018-05-24T08:41:55.335Z,41.09
2018-05-24T08:44:21.434Z,41.06
2018-05-24T08:46:47.793Z,41.05
2018-05-24T08:49:13.928Z,41.04
2018-05-24T08:51:40.253Z,40.98
2018-05-24T08:54:06.614Z,40.97
2018-05-24T08:56:32.752Z,40.96
2018-05-24T08:58:58.855Z,40.92
2018-05-24T09:01:25.286Z,40.87
2018-05-24T09:03:51.606Z,40.88
2018-05-24T09:06:18.032Z,40.89
2018-05-24T09:08:44.266Z,40.89
2018-05-24T09:11:10.390Z,40.83
2018-05-24T09:13:36.499Z,40.80
2018-05-24T09:16:02.724Z,40.77
2018-05-24T09:18:28.881Z,40.70
2018-05-24T09:20:55.297Z,40.69
2018-05-24T09:23:21.398Z,40.67
2018-05-24T09:25:47.521Z,40.64
2018-05-24T09:28:13.649Z,40.54
2018-05-24T09:30:40.000Z,40.54
2018-05-24T09:33:06.539Z,40.46
2018-05-24T09:35:32.676Z,40.43
2018-05-24T09:37:58.782Z,40.39
2018-05-24T09:40:24.889Z,40.38
2018-05-24T09:42:51.126Z,40.32
2018-05-24T09:45:17.220Z,40.30
2018-05-24T09:47:43.406Z,40.27
2018-05-24T09:50:09.829Z,40.21
2018-05-24T09:52:35.938Z,40.18
2018-05-24T09:55:02.041Z,40.14
2018-05-24T09:57:28.173Z,40.17
2018-05-24T09:59:54.291Z,40.13
2018-05-24T10:02:20.645Z,40.10
2018-05-24T10:04:46.835Z,40.04
2018-05-24T10:07:12.920Z,40.04
2018-05-24T10:09:39.013Z,39.98
2018-05-24T10:12:05.527Z,39.96
2018-05-24T10:14:31.616Z,39.85
2018-05-24T10:16:57.732Z,39.76
2018-05-24T10:19:23.974Z,39.69
2018-05-24T10:21:50.105Z,39.64
2018-05-24T10:24:16.205Z,39.62
2018-05-24T10:26:42.636Z,39.39
2018-05-24T10:29:09.071Z,39.53
2018-05-24T10:31:36.421Z,39.64
2018-05-24T10:34:02.562Z,39.66
2018-05-24T10:36:28.816Z,39.66
2018-05-24T10:38:55.211Z,39.57
2018-05-24T10:41:21.573Z,39.61
2018-05-24T10:43:47.987Z,39.82
2018-05-24T10:46:14.336Z,39.85
2018-05-24T10:48:40.555Z,39.74
2018-05-24T10:51:06.748Z,39.92
2018-05-24T10:53:32.838Z,39.93
2018-05-24T10:55:59.051Z,38.87
2018-05-24T10:58:25.570Z,37.75
2018-05-24T11:00:51.769Z,37.48
2018-05-24T11:03:18.155Z,37.22
2018-05-24T11:05:44.765Z,37.34
2018-05-24T11:08:10.968Z,37.56
2018-05-24T11:10:37.315Z,37.72
2018-05-24T11:13:03.515Z,37.62
2018-05-24T11:15:29.762Z,37.53
2018-05-24T11:17:56.583Z,37.69
2018-05-24T11:20:23.060Z,38.05
2018-05-24T11:22:49.260Z,38.34
2018-05-24T11:25:15.521Z,38.42
2018-05-24T11:27:41.760Z,38.60
2018-05-24T11:30:14.804Z,38.44
2018-05-24T11:32:41.052Z,38.38
2018-05-24T11:35:07.276Z,38.17
2018-05-24T11:37:33.489Z,37.76
2018-05-24T11:40:00.051Z,37.64
2018-05-24T11:42:26.246Z,37.72
2018-05-24T11:44:52.420Z,37.62
2018-05-24T11:47:18.645Z,37.46
2018-05-24T11:49:45.166Z,37.45
2018-05-24T11:52:11.421Z,37.32
2018-05-24T11:54:37.525Z,37.30
2018-05-24T11:57:03.629Z,37.29
2018-05-24T11:59:29.802Z,37.19
2018-05-24T12:01:55.951Z,37.18
2018-05-24T12:04:22.045Z,37.17
2018-05-24T12:06:48.427Z,37.09
2018-05-24T12:09:14.666Z,37.10
2018-05-24T12:11:40.765Z,37.08
2018-05-24T12:14:06.857Z,37.08
2018-05-24T12:16:33.037Z,37.08
2018-05-24T12:18:59.468Z,37.01
2018-05-24T12:21:25.565Z,36.99
2018-05-24T12:23:51.737Z,36.99
2018-05-24T12:26:17.897Z,37.19
2018-05-24T12:28:44.279Z,37.53
2018-05-24T12:31:10.408Z,37.76
2018-05-24T12:33:36.609Z,37.68
2018-05-24T12:36:02.728Z,37.65
2018-05-24T12:38:28.834Z,37.59
2018-05-24T12:40:54.969Z,37.69
2018-05-24T12:43:21.220Z,37.69
2018-05-24T12:45:47.423Z,37.77
2018-05-24T12:48:13.536Z,37.79
2018-05-24T12:50:39.682Z,37.82
2018-05-24T12:53:05.803Z,37.89
2018-05-24T12:55:31.981Z,38.06
2018-05-24T12:57:58.149Z,38.22
2018-05-24T13:00:24.222Z,38.12
2018-05-24T13:02:50.376Z,38.18
2018-05-24T13:05:16.491Z,38.15
2018-05-24T13:07:43.042Z,38.11
2018-05-24T13:10:09.413Z,38.11
2018-05-24T13:12:35.534Z,38.11
2018-05-24T13:15:01.691Z,38.12
2018-05-24T13:17:27.800Z,38.06
2018-05-24T13:19:53.918Z,37.98
2018-05-24T13:22:20.069Z,38.05
2018-05-24T13:24:46.218Z,38.00
2018-05-24T13:27:12.361Z,37.93
2018-05-24T13:29:38.483Z,37.84
2018-05-24T13:32:04.728Z,37.84
2018-05-24T13:34:30.848Z,37.80
2018-05-24T13:36:57.218Z,37.74
2018-05-24T13:39:23.690Z,37.70
2018-05-24T13:41:50.268Z,37.70
2018-05-24T13:44:16.462Z,37.61
2018-05-24T13:46:42.617Z,37.55
2018-05-24T13:49:08.762Z,37.53
2018-05-24T13:51:34.876Z,37.55
2018-05-24T13:54:01.059Z,37.59
2018-05-24T13:56:27.722Z,37.55
2018-05-24T13:58:53.831Z,37.63
2018-05-24T14:01:19.952Z,37.67
2018-05-24T14:03:46.184Z,37.75
2018-05-24T14:06:12.321Z,37.75
2018-05-24T14:08:38.426Z,37.73
2018-05-24T14:11:04.568Z,37.69
2018-05-24T14:13:30.709Z,37.66
2018-05-24T14:15:56.827Z,37.56
2018-05-24T14:18:23.021Z,37.41
2018-05-24T14:20:49.134Z,37.29
2018-05-24T14:23:15.232Z,37.23
2018-05-24T14:25:41.392Z,37.12
2018-05-24T14:28:07.524Z,36.94
2018-05-24T14:30:33.862Z,36.65
2018-05-24T14:33:00.018Z,36.27
2018-05-24T14:35:26.210Z,35.53
2018-05-24T14:37:52.315Z,33.11
2018-05-24T14:40:18.425Z,30.74
2018-05-24T14:42:44.569Z,29.46
2018-05-24T14:45:10.696Z,28.94
2018-05-24T14:47:36.825Z,29.18
2018-05-24T14:50:02.934Z,29.90
2018-05-24T14:52:29.072Z,31.27
2018-05-24T14:54:55.194Z,32.55
2018-05-24T14:57:21.349Z,33.54
2018-05-24T14:59:47.460Z,33.81
2018-05-24T15:02:13.560Z,34.07
2018-05-24T15:04:40.152Z,34.29
2018-05-24T15:07:06.486Z,34.37
2018-05-24T15:09:32.597Z,34.56
2018-05-24T15:11:58.750Z,34.86
2018-05-24T15:14:24.883Z,35.39
2018-05-24T15:16:51.025Z,35.78
2018-05-24T15:19:17.133Z,35.99
2018-05-24T15:21:43.608Z,36.10
2018-05-24T15:24:09.702Z,36.24
2018-05-24T15:26:35.839Z,36.33
2018-05-24T15:29:01.986Z,36.43
2018-05-24T15:31:28.090Z,36.50
2018-05-24T15:33:54.275Z,36.59
2018-05-24T15:36:20.384Z,36.61
2018-05-24T15:38:46.490Z,36.67
2018-05-24T15:41:12.632Z,36.74
2018-05-24T15:43:38.763Z,36.69
2018-05-24T15:46:05.133Z,36.74
2018-05-24T15:48:31.253Z,36.83
2018-05-24T15:50:57.381Z,36.91
2018-05-24T15:53:23.564Z,36.90
2018-05-24T15:55:49.894Z,36.71
2018-05-24T15:58:16.058Z,36.72
2018-05-24T16:00:42.424Z,36.52
2018-05-24T16:03:08.550Z,36.51
2018-05-24T16:05:34.891Z,36.09
2018-05-24T16:08:01.068Z,35.55
2018-05-24T16:10:27.266Z,35.63
2018-05-24T16:12:53.386Z,35.66
2018-05-24T16:15:19.497Z,35.77
2018-05-24T16:17:45.654Z,35.74
2018-05-24T16:20:11.773Z,35.82
2018-05-24T16:22:37.926Z,36.06
2018-05-24T16:25:04.249Z,36.05
2018-05-24T16:27:30.382Z,36.13
2018-05-24T16:29:56.539Z,36.25
2018-05-24T16:32:22.651Z,36.34
2018-05-24T16:34:49.148Z,36.47
2018-05-24T16:37:15.432Z,36.50
2018-05-24T16:39:41.551Z,36.45
2018-05-24T16:42:07.669Z,36.19
2018-05-24T16:44:34.029Z,35.85
2018-05-24T16:47:00.170Z,35.45
2018-05-24T16:49:26.423Z,33.88
2018-05-24T16:51:53.645Z,33.23
2018-05-24T16:54:19.825Z,32.33
2018-05-24T16:56:45.957Z,31.70
2018-05-24T16:59:12.058Z,31.40
2018-05-24T17:01:38.157Z,31.36
2018-05-24T17:04:04.555Z,31.84
2018-05-24T17:06:30.812Z,32.73
2018-05-24T17:08:57.176Z,33.18
2018-05-24T17:11:23.315Z,33.30
2018-05-24T17:13:49.455Z,33.44
2018-05-24T17:16:15.715Z,32.72
2018-05-24T17:18:42.278Z,32.46
2018-05-24T17:21:08.624Z,32.73
2018-05-24T17:23:35.141Z,32.89
2018-05-24T17:26:01.317Z,32.92
2018-05-24T17:28:27.451Z,33.03
2018-05-24T17:30:53.610Z,33.13
2018-05-24T17:33:19.726Z,33.17
2018-05-24T17:35:46.157Z,33.10
2018-05-24T17:38:12.327Z,33.10
2018-05-24T17:40:38.465Z,33.05
2018-05-24T17:43:05.049Z,33.16
2018-05-24T17:45:31.150Z,33.22
2018-05-24T17:47:57.281Z,33.16
2018-05-24T17:50:23.725Z,33.07
2018-05-24T17:52:49.985Z,32.61
2018-05-24T17:55:16.153Z,32.20
2018-05-24T17:57:42.277Z,32.03
2018-05-24T18:00:08.434Z,31.92
2018-05-24T18:02:34.570Z,31.63
2018-05-24T18:05:00.691Z,31.66
2018-05-24T18:07:27.051Z,31.82
2018-05-24T18:09:53.239Z,31.84
2018-05-24T18:12:19.679Z,31.95
2018-05-24T18:14:45.805Z,32.14
2018-05-24T18:17:11.931Z,32.25
2018-05-24T18:19:38.369Z,32.59
2018-05-24T18:22:04.526Z,32.73
2018-05-24T18:24:30.661Z,32.94
2018-05-24T18:26:57.835Z,33.02
2018-05-24T18:29:24.203Z,33.00
2018-05-24T18:31:50.365Z,33.06
2018-05-24T18:34:16.482Z,33.07
2018-05-24T18:36:42.641Z,33.10
2018-05-24T18:39:08.890Z,33.20
2018-05-24T18:41:35.355Z,33.37
2018-05-24T18:44:01.455Z,33.53
2018-05-24T18:46:27.981Z,33.69
2018-05-24T18:48:54.124Z,33.87
2018-05-24T18:51:20.225Z,34.15
2018-05-24T18:53:46.360Z,34.22
2018-05-24T18:56:12.489Z,34.34
2018-05-24T18:58:38.629Z,34.44
2018-05-24T19:01:04.744Z,34.58
2018-05-24T19:03:30.870Z,34.77
2018-05-24T19:05:57.021Z,34.97
2018-05-24T19:08:23.129Z,35.26
2018-05-24T19:10:49.660Z,35.29
2018-05-24T19:13:15.777Z,35.65
2018-05-24T19:15:42.243Z,35.87
2018-05-24T19:18:08.404Z,35.81
2018-05-24T19:20:34.501Z,36.02
2018-05-24T19:23:00.651Z,36.15
2018-05-24T19:25:27.234Z,36.34
2018-05-24T19:27:53.326Z,36.39
2018-05-24T19:30:19.430Z,36.61
2018-05-24T19:32:47.595Z,36.65
2018-05-24T19:35:13.768Z,36.83
2018-05-24T19:37:40.477Z,36.83
2018-05-24T19:40:06.682Z,36.97
2018-05-24T19:42:32.793Z,36.95
2018-05-24T19:44:58.940Z,36.94
2018-05-24T19:47:25.182Z,37.17
2018-05-24T19:49:51.281Z,37.14
2018-05-24T19:52:17.388Z,37.36
2018-05-24T19:54:43.637Z,37.34
2018-05-24T19:57:09.738Z,37.34
2018-05-24T19:59:35.865Z,37.47
2018-05-24T20:02:02.399Z,37.46
2018-05-24T20:04:29.068Z,37.43
2018-05-24T20:06:56.308Z,37.51
2018-05-24T20:09:23.255Z,37.57
2018-05-24T20:11:50.199Z,37.63
2018-05-24T20:14:17.560Z,37.67
2018-05-24T20:16:44.602Z,37.79
2018-05-24T20:19:11.477Z,37.83
2018-05-24T20:21:38.493Z,37.82
2018-05-24T20:24:05.437Z,37.87
2018-05-24T20:26:32.760Z,37.87
2018-05-24T20:28:59.771Z,37.88
2018-05-24T20:31:26.578Z,37.92
2018-05-24T20:33:53.372Z,37.94
2018-05-24T20:36:20.185Z,37.44
2018-05-24T20:38:47.307Z,37.50
2018-05-24T20:41:14.253Z,37.40
2018-05-24T20:43:41.094Z,37.37
2018-05-24T20:46:07.873Z,37.50
2018-05-24T20:48:34.985Z,37.49
2018-05-24T20:51:01.826Z,37.55
2018-05-24T20:53:28.709Z,37.58
2018-05-24T20:55:56.024Z,37.71
2018-05-24T20:58:22.868Z,37.82
2018-05-24T21:00:50.324Z,37.90
2018-05-24T21:03:17.269Z,37.97
2018-05-24T21:05:44.623Z,38.00
2018-05-24T21:08:11.979Z,38.02
2018-05-24T21:10:38.924Z,38.06
2018-05-24T21:13:05.868Z,38.13
2018-05-24T21:15:32.815Z,38.26
2018-05-24T21:17:59.654Z,38.26
2018-05-24T21:20:26.527Z,38.40
2018-05-24T21:22:53.444Z,38.48
2018-05-24T21:25:20.324Z,38.60
2018-05-24T21:27:47.128Z,38.68
2018-05-24T21:30:14.072Z,38.73
2018-05-24T21:32:40.915Z,38.81
2018-05-24T21:35:08.683Z,38.87
2018-05-24T21:37:35.523Z,38.99
2018-05-24T21:40:02.980Z,38.94
2018-05-24T21:42:30.129Z,39.04
2018-05-24T21:44:56.885Z,39.14
2018-05-24T21:47:23.817Z,39.23
2018-05-24T21:49:50.775Z,39.22
2018-05-24T21:52:17.600Z,39.37
2018-05-24T21:54:44.334Z,39.46
2018-05-24T21:57:11.185Z,39.50
2018-05-24T21:59:37.978Z,39.36
2018-05-24T22:02:04.831Z,39.52
2018-05-24T22:04:31.814Z,39.82
2018-05-24T22:07:01.782Z,39.80
2018-05-24T22:09:29.485Z,39.88
2018-05-24T22:11:56.335Z,40.05
2018-05-24T22:14:23.384Z,40.09
2018-05-24T22:16:50.328Z,40.13
2018-05-24T22:19:17.541Z,40.21
2018-05-24T22:21:44.300Z,40.27
2018-05-24T22:24:11.777Z,40.33
2018-05-24T22:26:38.991Z,40.41
2018-05-24T22:29:05.799Z,40.48
2018-05-24T22:31:32.499Z,40.54
2018-05-24T22:33:59.456Z,40.54
2018-05-24T22:36:26.667Z,40.60
2018-05-24T22:38:53.318Z,40.65
2018-05-24T22:41:20.324Z,40.74
2018-05-24T22:43:46.664Z,40.90
2018-05-24T22:46:13.021Z,40.98
2018-05-24T22:48:39.223Z,40.97
2018-05-24T22:51:05.340Z,41.15
2018-05-24T22:53:31.577Z,41.20
2018-05-24T22:55:57.680Z,41.29
2018-05-24T22:58:23.772Z,41.43
2018-05-24T23:00:50.191Z,41.49
2018-05-24T23:03:16.356Z,41.59
2018-05-24T23:05:42.463Z,41.49
2018-05-24T23:08:08.582Z,41.60
2018-05-24T23:10:34.818Z,41.65
2018-05-24T23:13:00.918Z,41.75
2018-05-24T23:15:27.022Z,41.82
2018-05-24T23:17:53.486Z,41.86
2018-05-24T23:20:19.713Z,41.87
2018-05-24T23:22:45.822Z,41.88
2018-05-24T23:25:11.925Z,41.84
2018-05-24T23:27:38.297Z,41.83
2018-05-24T23:30:04.388Z,41.83
2018-05-24T23:32:30.747Z,42.15
2018-05-24T23:34:57.182Z,41.95
2018-05-24T23:37:23.316Z,41.95
2018-05-24T23:39:49.563Z,42.00
2018-05-24T23:42:15.884Z,42.03
2018-05-24T23:44:41.968Z,42.02
2018-05-24T23:47:08.121Z,42.07
2018-05-24T23:49:34.209Z,42.13
2018-05-24T23:52:00.576Z,42.13
2018-05-24T23:54:26.701Z,42.09
2018-05-24T23:56:53.136Z,42.03
2018-05-24T23:59:19.563Z,42.11
